createdAt,value
2022-10-15T00:01:46.770Z,13.50
2022-10-15T00:04:14.267Z,12.70
2022-10-15T00:06:43.399Z,12.83
2022-10-15T00:09:10.855Z,12.30
2022-10-15T00:11:39.771Z,10.83
2022-10-15T00:14:07.261Z,12.23
2022-10-15T00:16:34.834Z,11.37
2022-10-15T00:19:02.283Z,13.20
2022-10-15T00:21:29.709Z,13.53
2022-10-15T00:23:58.791Z,11.30
2022-10-15T00:26:26.970Z,11.83
2022-10-15T00:28:55.235Z,12.83
2022-10-15T00:31:26.353Z,14.33
2022-10-15T00:33:54.905Z,13.17
2022-10-15T00:36:24.811Z,15.70
2022-10-15T00:38:52.739Z,13.07
2022-10-15T00:41:22.945Z,15.17
2022-10-15T00:43:51.535Z,14.60
2022-10-15T00:46:21.685Z,15.30
2022-10-15T00:48:50.134Z,15.87
2022-10-15T00:51:18.795Z,16.57
2022-10-15T00:53:46.403Z,15.73
2022-10-15T00:56:14.608Z,16.50
2022-10-15T00:58:43.524Z,17.67
2022-10-15T01:01:11.040Z,20.03
2022-10-15T01:03:38.568Z,18.37
2022-10-15T01:06:06.415Z,14.17
2022-10-15T01:08:34.179Z,17.13
2022-10-15T01:11:11.411Z,17.00
2022-10-15T01:13:44.058Z,18.37
2022-10-15T01:16:18.678Z,16.73
2022-10-15T01:18:50.335Z,18.27
2022-10-15T01:21:20.453Z,19.07
2022-10-15T01:24:09.045Z,17.07
2022-10-15T01:27:07.549Z,18.50
2022-10-15T01:29:49.175Z,17.70
2022-10-15T01:32:21.016Z,17.73
2022-10-15T01:34:52.355Z,20.77
2022-10-15T01:37:22.826Z,18.63
2022-10-15T01:39:53.124Z,18.13
2022-10-15T01:42:24.058Z,17.77
2022-10-15T01:44:52.556Z,19.10
2022-10-15T01:47:47.321Z,18.03
2022-10-15T01:50:17.162Z,19.40
2022-10-15T01:52:46.045Z,20.47
2022-10-15T01:55:15.706Z,18.10
2022-10-15T01:57:44.216Z,15.93
2022-10-15T02:00:13.637Z,20.17
2022-10-15T02:02:41.194Z,16.80
2022-10-15T02:05:13.437Z,17.37
2022-10-15T02:07:44.897Z,14.77
2022-10-15T02:10:15.171Z,17.37
2022-10-15T02:12:48.190Z,15.57
2022-10-15T02:15:19.673Z,17.23
2022-10-15T02:17:54.857Z,19.13
2022-10-15T02:20:29.947Z,18.43
2022-10-15T02:23:00.720Z,17.23
2022-10-15T02:25:28.927Z,16.43
2022-10-15T02:27:57.897Z,15.00
2022-10-15T02:30:28.385Z,18.20
2022-10-15T02:32:56.954Z,15.67
2022-10-15T02:35:24.875Z,15.27
2022-10-15T02:37:54.878Z,14.67
2022-10-15T02:40:23.295Z,17.37
2022-10-15T02:42:51.608Z,14.50
2022-10-15T02:45:19.423Z,13.50
2022-10-15T02:47:46.883Z,15.77
2022-10-15T02:50:14.445Z,17.97
2022-10-15T02:52:41.895Z,14.80
2022-10-15T02:55:11.111Z,16.20
2022-10-15T02:57:39.079Z,16.10
2022-10-15T03:00:08.309Z,20.40
2022-10-15T03:02:36.382Z,17.30
2022-10-15T03:05:04.502Z,21.00
2022-10-15T03:07:31.987Z,16.67
2022-10-15T03:10:00.409Z,16.57
2022-10-15T03:12:29.444Z,18.50
2022-10-15T03:14:57.827Z,17.10
2022-10-15T03:17:26.336Z,20.43
2022-10-15T03:19:53.911Z,16.43
2022-10-15T03:22:22.717Z,18.50
2022-10-15T03:24:53.568Z,16.77
2022-10-15T03:27:26.293Z,18.30
2022-10-15T03:29:55.731Z,19.10
2022-10-15T03:32:25.570Z,17.23
2022-10-15T03:34:53.271Z,17.17
2022-10-15T03:37:22.067Z,20.87
2022-10-15T03:39:49.961Z,15.43
2022-10-15T03:42:19.292Z,14.87
2022-10-15T03:44:47.133Z,14.27
2022-10-15T03:47:19.723Z,14.97
2022-10-15T03:49:50.977Z,17.73
2022-10-15T03:52:19.889Z,13.10
2022-10-15T03:54:48.526Z,15.03
2022-10-15T03:57:19.074Z,17.20
2022-10-15T03:59:51.833Z,15.07
2022-10-15T04:02:23.167Z,16.40
2022-10-15T04:04:52.296Z,15.33
2022-10-15T04:07:20.097Z,13.77
2022-10-15T04:09:48.156Z,14.37
2022-10-15T04:12:29.716Z,15.43
2022-10-15T04:14:57.261Z,13.03
2022-10-15T04:17:26.181Z,14.70
2022-10-15T04:19:53.957Z,12.57
2022-10-15T04:22:22.841Z,19.50
2022-10-15T04:24:58.367Z,17.67
2022-10-15T04:27:28.248Z,24.07
2022-10-15T04:30:06.205Z,17.17
2022-10-15T04:32:35.367Z,11.17
2022-10-15T04:35:03.240Z,13.27
2022-10-15T04:37:51.791Z,12.80
2022-10-15T04:40:19.374Z,15.60
2022-10-15T04:42:47.604Z,12.97
2022-10-15T04:45:15.365Z,13.10
2022-10-15T04:47:45.765Z,10.90
2022-10-15T04:50:15.474Z,10.33
2022-10-15T04:53:01.497Z,9.40
2022-10-15T04:55:33.006Z,10.63
2022-10-15T04:58:02.258Z,10.60
2022-10-15T05:00:31.123Z,9.27
2022-10-15T05:03:38.512Z,9.50
2022-10-15T05:06:09.357Z,10.60
2022-10-15T05:08:41.755Z,9.20
2022-10-15T05:11:19.329Z,9.63
2022-10-15T05:13:46.789Z,9.13
2022-10-15T05:16:15.192Z,8.57
2022-10-15T05:18:44.953Z,7.97
2022-10-15T05:21:13.483Z,8.33
2022-10-15T05:23:42.894Z,8.77
2022-10-15T05:26:33.575Z,8.27
2022-10-15T05:29:02.827Z,9.37
2022-10-15T05:31:32.592Z,10.43
2022-10-15T05:34:09.334Z,8.40
2022-10-15T05:36:46.671Z,7.90
2022-10-15T05:39:16.143Z,8.10
2022-10-15T05:41:45.644Z,7.63
2022-10-15T05:44:14.415Z,6.67
2022-10-15T05:46:42.241Z,10.30
2022-10-15T05:49:14.019Z,7.80
2022-10-15T05:51:48.883Z,8.17
2022-10-15T05:54:26.735Z,10.00
2022-10-15T05:56:54.152Z,10.00
2022-10-15T05:59:21.621Z,7.00
2022-10-15T06:01:49.102Z,5.60
2022-10-15T06:04:18.047Z,5.93
2022-10-15T06:06:45.482Z,5.67
2022-10-15T06:09:12.909Z,4.93
2022-10-15T06:11:40.351Z,6.07
2022-10-15T06:14:10.978Z,4.73
2022-10-15T06:16:38.444Z,4.00
2022-10-15T06:19:06.276Z,5.53
2022-10-15T06:21:35.061Z,3.77
2022-10-15T06:24:05.146Z,6.73
2022-10-15T06:26:35.126Z,3.67
2022-10-15T06:29:02.595Z,3.80
2022-10-15T06:31:30.115Z,2.80
2022-10-15T06:33:57.533Z,2.80
2022-10-15T06:36:25.828Z,2.83
2022-10-15T06:38:54.616Z,3.07
2022-10-15T06:41:22.038Z,2.83
2022-10-15T06:43:50.082Z,5.67
2022-10-15T06:46:17.577Z,2.53
2022-10-15T06:48:45.002Z,3.00
2022-10-15T06:51:13.776Z,4.90
2022-10-15T06:53:47.903Z,2.80
2022-10-15T06:56:16.694Z,2.67
2022-10-15T06:58:45.599Z,2.87
2022-10-15T07:01:13.033Z,2.03
2022-10-15T07:03:40.480Z,4.23
2022-10-15T07:06:08.655Z,2.73
2022-10-15T07:08:37.019Z,2.20
2022-10-15T07:11:04.779Z,1.63
2022-10-15T07:13:33.597Z,2.10
2022-10-15T07:16:04.297Z,2.63
2022-10-15T07:18:32.725Z,2.20
2022-10-15T07:21:00.224Z,2.00
2022-10-15T07:23:28.340Z,2.30
2022-10-15T07:25:57.841Z,3.37
2022-10-15T07:28:25.933Z,3.93
2022-10-15T07:30:54.706Z,2.47
2022-10-15T07:33:22.238Z,1.70
2022-10-15T07:35:59.775Z,1.70
2022-10-15T07:38:27.548Z,4.40
2022-10-15T07:40:58.250Z,6.10
2022-10-15T07:43:27.111Z,4.00
2022-10-15T07:45:56.036Z,1.50
2022-10-15T07:48:23.574Z,2.00
2022-10-15T07:50:54.639Z,3.63
2022-10-15T07:53:22.775Z,1.60
2022-10-15T07:55:54.161Z,3.07
2022-10-15T07:58:21.839Z,3.20
2022-10-15T08:00:49.325Z,2.03
2022-10-15T08:03:18.133Z,1.80
2022-10-15T08:05:45.548Z,2.63
2022-10-15T08:08:12.986Z,1.50
2022-10-15T08:10:40.693Z,2.70
2022-10-15T08:13:08.257Z,1.60
2022-10-15T08:15:35.718Z,1.80
2022-10-15T08:18:03.150Z,1.70
2022-10-15T08:20:31.955Z,1.47
2022-10-15T08:22:59.457Z,2.53
2022-10-15T08:25:26.975Z,2.27
2022-10-15T08:27:54.767Z,2.13
2022-10-15T08:30:22.380Z,2.27
2022-10-15T08:32:50.204Z,1.43
2022-10-15T08:35:19.226Z,1.57
2022-10-15T08:37:48.012Z,1.20
2022-10-15T08:40:16.088Z,1.90
2022-10-15T08:42:45.794Z,1.60
2022-10-15T08:45:14.713Z,1.50
2022-10-15T08:47:44.996Z,1.53
2022-10-15T08:50:18.133Z,1.67
2022-10-15T08:52:46.865Z,2.87
2022-10-15T08:55:16.989Z,1.67
2022-10-15T08:57:46.879Z,1.63
2022-10-15T09:00:17.077Z,3.50
2022-10-15T09:02:47.788Z,1.87
2022-10-15T09:05:22.301Z,2.20
2022-10-15T09:07:54.539Z,1.30
2022-10-15T09:10:30.537Z,1.10
2022-10-15T09:13:00.825Z,3.53
2022-10-15T09:15:28.425Z,0.97
2022-10-15T09:17:56.203Z,1.20
2022-10-15T09:20:27.482Z,0.90
2022-10-15T09:22:55.192Z,0.93
2022-10-15T09:25:26.480Z,1.00
2022-10-15T09:28:03.432Z,3.03
2022-10-15T09:30:34.561Z,1.43
2022-10-15T09:33:04.512Z,1.27
2022-10-15T09:35:35.347Z,0.67
2022-10-15T09:38:13.121Z,2.03
2022-10-15T09:40:47.644Z,1.53
2022-10-15T09:43:23.856Z,0.77
2022-10-15T09:45:51.277Z,1.20
2022-10-15T09:48:20.391Z,0.97
2022-10-15T09:50:54.664Z,1.40
2022-10-15T09:53:28.135Z,1.93
2022-10-15T09:56:02.972Z,1.63
2022-10-15T09:58:39.970Z,1.30
2022-10-15T10:01:08.158Z,0.87
2022-10-15T10:03:36.342Z,2.50
2022-10-15T10:06:05.475Z,1.47
2022-10-15T10:08:39.522Z,0.60
2022-10-15T10:11:08.593Z,1.90
2022-10-15T10:13:39.933Z,1.07
2022-10-15T10:16:09.321Z,1.40
2022-10-15T10:18:37.597Z,0.60
2022-10-15T10:21:05.896Z,0.70
2022-10-15T10:23:34.959Z,1.33
2022-10-15T10:26:03.357Z,2.13
2022-10-15T10:28:33.813Z,1.00
2022-10-15T10:31:04.459Z,1.57
2022-10-15T10:33:33.486Z,2.43
2022-10-15T10:36:01.602Z,2.97
2022-10-15T10:38:31.175Z,2.93
2022-10-15T10:41:05.167Z,1.77
2022-10-15T10:43:38.302Z,1.80
2022-10-15T10:46:18.384Z,1.20
2022-10-15T10:48:49.926Z,0.87
2022-10-15T10:51:19.471Z,1.23
2022-10-15T10:53:53.727Z,2.10
2022-10-15T10:56:23.612Z,0.60
2022-10-15T10:58:56.080Z,1.47
2022-10-15T11:01:25.172Z,2.57
2022-10-15T11:03:52.739Z,3.07
2022-10-15T11:06:29.219Z,3.13
2022-10-15T11:09:04.148Z,0.90
2022-10-15T11:11:34.754Z,1.07
2022-10-15T11:14:07.888Z,1.60
2022-10-15T11:16:39.557Z,1.47
2022-10-15T11:19:19.042Z,1.10
2022-10-15T11:21:51.873Z,0.90
2022-10-15T11:24:22.006Z,0.60
2022-10-15T11:27:10.517Z,1.90
2022-10-15T11:29:47.595Z,0.60
2022-10-15T11:32:25.338Z,1.73
2022-10-15T11:35:01.139Z,0.50
2022-10-15T11:37:35.432Z,0.50
2022-10-15T11:40:13.770Z,1.37
2022-10-15T11:42:45.751Z,1.27
2022-10-15T11:45:28.093Z,2.30
2022-10-15T11:47:59.878Z,1.40
2022-10-15T11:50:28.906Z,0.20
2022-10-15T11:53:03.072Z,0.20
2022-10-15T11:55:36.504Z,0.30
2022-10-15T11:58:08.473Z,0.20
2022-10-15T12:00:39.017Z,0.30
2022-10-15T12:03:10.931Z,0.47
2022-10-15T12:05:39.996Z,0.73
2022-10-15T12:08:08.120Z,0.23
2022-10-15T12:10:40.557Z,0.50
2022-10-15T12:13:10.866Z,0.70
2022-10-15T12:15:42.684Z,0.30
2022-10-15T12:18:15.448Z,1.27
2022-10-15T12:20:45.568Z,0.30
2022-10-15T12:23:24.246Z,0.33
2022-10-15T12:25:51.838Z,0.23
2022-10-15T12:28:21.264Z,0.57
2022-10-15T12:30:56.027Z,0.40
2022-10-15T12:33:30.909Z,0.20
2022-10-15T12:36:00.107Z,0.20
2022-10-15T12:38:28.956Z,0.30
2022-10-15T12:40:58.725Z,0.20
2022-10-15T12:43:27.643Z,0.67
2022-10-15T12:45:56.001Z,0.27
2022-10-15T12:48:31.711Z,0.33
2022-10-15T12:51:17.959Z,0.30
2022-10-15T12:53:46.187Z,0.27
2022-10-15T12:56:14.557Z,0.60
2022-10-15T12:58:42.125Z,0.40
2022-10-15T13:01:24.535Z,0.70
2022-10-15T13:03:56.080Z,0.33
2022-10-15T13:06:34.256Z,0.30
2022-10-15T13:09:05.661Z,2.83
2022-10-15T13:11:34.141Z,1.13
2022-10-15T13:14:03.436Z,0.20
2022-10-15T13:16:31.668Z,1.27
2022-10-15T13:19:00.571Z,1.10
2022-10-15T13:21:49.488Z,0.93
2022-10-15T13:24:18.705Z,1.10
2022-10-15T13:26:46.263Z,2.13
2022-10-15T13:29:16.275Z,0.30
2022-10-15T13:31:45.001Z,0.40
2022-10-15T13:34:17.221Z,0.40
2022-10-15T13:36:45.755Z,0.40
2022-10-15T13:39:21.801Z,0.30
2022-10-15T13:41:50.078Z,0.50
2022-10-15T13:44:22.129Z,0.63
2022-10-15T13:46:49.739Z,0.37
2022-10-15T13:49:19.137Z,0.43
2022-10-15T13:51:48.487Z,0.87
2022-10-15T13:54:17.278Z,0.30
2022-10-15T13:56:50.253Z,0.40
2022-10-15T13:59:20.072Z,0.53
2022-10-15T14:01:48.442Z,0.90
2022-10-15T14:04:16.899Z,0.40
2022-10-15T14:06:56.575Z,0.40
2022-10-15T14:09:27.132Z,0.60
2022-10-15T14:11:59.105Z,0.60
2022-10-15T14:14:32.187Z,0.53
2022-10-15T14:17:00.269Z,0.43
2022-10-15T14:19:29.909Z,0.40
2022-10-15T14:22:01.020Z,0.70
2022-10-15T14:24:31.199Z,0.57
2022-10-15T14:27:03.029Z,0.50
2022-10-15T14:29:35.985Z,0.47
2022-10-15T14:32:03.503Z,0.47
2022-10-15T14:34:32.383Z,1.53
2022-10-15T14:37:01.439Z,0.40
2022-10-15T14:39:30.835Z,0.50
2022-10-15T14:42:02.238Z,0.30
2022-10-15T14:44:42.028Z,0.50
2022-10-15T14:47:15.948Z,1.10
2022-10-15T14:49:43.399Z,0.87
2022-10-15T14:52:14.895Z,1.87
2022-10-15T14:54:43.557Z,1.03
2022-10-15T14:57:17.479Z,0.70
2022-10-15T14:59:45.275Z,0.50
2022-10-15T15:02:15.815Z,0.50
2022-10-15T15:04:44.404Z,0.60
2022-10-15T15:07:17.610Z,0.50
2022-10-15T15:09:47.817Z,2.30
2022-10-15T15:12:17.250Z,0.90
2022-10-15T15:14:45.292Z,0.40
2022-10-15T15:17:15.534Z,0.60
2022-10-15T15:19:43.905Z,0.33
2022-10-15T15:22:12.543Z,0.47
2022-10-15T15:24:41.324Z,0.80
2022-10-15T15:27:08.764Z,0.40
2022-10-15T15:29:36.209Z,0.43
2022-10-15T15:32:03.666Z,0.40
2022-10-15T15:34:31.326Z,0.57
2022-10-15T15:36:58.756Z,0.50
2022-10-15T15:39:26.465Z,0.70
2022-10-15T15:41:55.313Z,0.50
2022-10-15T15:44:22.980Z,0.70
2022-10-15T15:46:55.080Z,0.70
2022-10-15T15:49:22.625Z,0.70
2022-10-15T15:51:50.092Z,0.93
2022-10-15T15:54:17.525Z,0.53
2022-10-15T15:56:44.959Z,0.50
2022-10-15T15:59:13.811Z,1.40
2022-10-15T16:01:41.297Z,1.77
2022-10-15T16:04:08.755Z,2.00
2022-10-15T16:06:36.476Z,0.53
2022-10-15T16:09:05.517Z,0.47
2022-10-15T16:11:33.301Z,0.50
2022-10-15T16:14:02.276Z,1.47
2022-10-15T16:16:32.512Z,2.47
2022-10-15T16:19:00.462Z,3.23
2022-10-15T16:21:29.675Z,2.77
2022-10-15T16:23:57.360Z,1.30
2022-10-15T16:26:25.021Z,2.27
2022-10-15T16:28:52.541Z,2.70
2022-10-15T16:31:21.217Z,1.13
2022-10-15T16:33:50.380Z,0.80
2022-10-15T16:36:18.201Z,0.60
2022-10-15T16:38:46.360Z,1.70
2022-10-15T16:41:15.292Z,1.27
2022-10-15T16:43:43.005Z,0.87
2022-10-15T16:46:10.639Z,1.43
2022-10-15T16:48:38.173Z,0.70
2022-10-15T16:51:08.438Z,2.07
2022-10-15T16:53:36.863Z,1.40
2022-10-15T16:56:05.690Z,1.80
2022-10-15T16:58:33.411Z,1.13
2022-10-15T17:01:01.674Z,1.60
2022-10-15T17:03:30.096Z,1.47
2022-10-15T17:05:58.166Z,1.40
2022-10-15T17:08:32.072Z,0.80
2022-10-15T17:11:03.335Z,2.57
2022-10-15T17:13:30.873Z,0.83
2022-10-15T17:16:08.320Z,0.93
2022-10-15T17:18:35.801Z,1.40
2022-10-15T17:21:03.272Z,1.40
2022-10-15T17:23:32.193Z,1.10
2022-10-15T17:26:03.448Z,0.93
2022-10-15T17:28:30.875Z,1.40
2022-10-15T17:31:02.556Z,1.40
2022-10-15T17:33:30.470Z,2.17
2022-10-15T17:35:57.952Z,0.80
2022-10-15T17:38:25.505Z,1.83
2022-10-15T17:40:54.445Z,2.70
2022-10-15T17:43:21.863Z,2.67
2022-10-15T17:45:49.281Z,0.80
2022-10-15T17:48:17.150Z,1.00
2022-10-15T17:50:45.530Z,1.03
2022-10-15T17:53:13.379Z,1.10
2022-10-15T17:55:41.301Z,1.10
2022-10-15T17:58:10.101Z,1.30
2022-10-15T18:00:37.545Z,2.40
2022-10-15T18:03:05.059Z,13.90
2022-10-15T18:05:32.670Z,33.73
2022-10-15T18:08:00.192Z,55.37
2022-10-15T18:10:30.356Z,26.70
2022-10-15T18:12:57.912Z,48.37
2022-10-15T18:15:26.732Z,37.53
2022-10-15T18:17:54.170Z,30.17
2022-10-15T18:20:21.605Z,15.83
2022-10-15T18:22:50.381Z,32.83
2022-10-15T18:25:17.909Z,31.63
2022-10-15T18:27:45.577Z,126.50
2022-10-15T18:30:13.035Z,131.37
2022-10-15T18:32:41.793Z,88.07
2022-10-15T18:35:09.421Z,99.43
2022-10-15T18:37:36.862Z,34.70
2022-10-15T18:40:04.572Z,43.43
2022-10-15T18:42:32.305Z,37.43
2022-10-15T18:44:59.761Z,8.13
2022-10-15T18:47:27.258Z,3.47
2022-10-15T18:49:56.039Z,4.73
2022-10-15T18:52:38.889Z,3.90
2022-10-15T18:55:08.174Z,7.20
2022-10-15T18:57:39.558Z,6.33
2022-10-15T19:00:07.869Z,2.30
2022-10-15T19:02:35.306Z,4.33
2022-10-15T19:05:04.409Z,5.50
2022-10-15T19:07:31.901Z,9.80
2022-10-15T19:10:00.428Z,6.17
2022-10-15T19:12:28.391Z,5.53
2022-10-15T19:14:56.081Z,7.50
2022-10-15T19:17:23.573Z,9.00
2022-10-15T19:19:51.021Z,7.70
2022-10-15T19:22:19.821Z,16.63
2022-10-15T19:24:47.245Z,3.20
2022-10-15T19:27:14.739Z,3.60
2022-10-15T19:29:42.171Z,3.20
2022-10-15T19:32:10.541Z,5.30
2022-10-15T19:34:38.003Z,1.60
2022-10-15T19:37:05.457Z,2.00
2022-10-15T19:39:38.943Z,1.67
2022-10-15T19:42:06.371Z,1.70
2022-10-15T19:44:34.069Z,7.00
2022-10-15T19:47:01.686Z,42.23
2022-10-15T19:49:29.297Z,35.30
2022-10-15T19:51:56.737Z,11.10
2022-10-15T19:56:54.247Z,13.60
2022-10-15T19:59:21.747Z,7.17
2022-10-15T20:01:49.212Z,8.47
2022-10-15T20:04:19.957Z,6.67
2022-10-15T20:06:49.301Z,6.57
2022-10-15T20:09:16.833Z,3.67
2022-10-15T20:11:44.937Z,3.53
2022-10-15T20:14:13.943Z,2.60
2022-10-15T20:16:41.565Z,2.40
2022-10-15T20:19:08.983Z,2.13
2022-10-15T20:21:36.506Z,1.47
2022-10-15T20:24:04.579Z,2.17
2022-10-15T20:26:32.545Z,1.50
2022-10-15T20:29:00.023Z,1.50
2022-10-15T20:31:32.663Z,1.60
2022-10-15T20:34:00.854Z,1.50
2022-10-15T20:36:28.398Z,1.63
2022-10-15T20:38:57.380Z,2.37
2022-10-15T20:41:25.255Z,1.93
2022-10-15T20:43:54.607Z,4.13
2022-10-15T20:46:24.545Z,2.53
2022-10-15T20:48:54.168Z,2.30
2022-10-15T20:51:25.973Z,2.37
2022-10-15T20:53:56.386Z,2.60
2022-10-15T20:56:24.327Z,3.07
2022-10-15T20:58:51.751Z,6.00
2022-10-15T21:01:20.087Z,3.63
2022-10-15T21:03:47.601Z,4.23
2022-10-15T21:06:16.630Z,3.67
2022-10-15T21:08:44.152Z,3.87
2022-10-15T21:11:11.597Z,3.07
2022-10-15T21:13:39.079Z,2.80
2022-10-15T21:16:07.798Z,3.17
2022-10-15T21:18:36.103Z,4.07
2022-10-15T21:21:04.573Z,3.87
2022-10-15T21:23:33.585Z,4.03
2022-10-15T21:26:04.926Z,2.30
2022-10-15T21:28:32.656Z,2.10
2022-10-15T21:31:00.590Z,2.37
2022-10-15T21:33:30.020Z,6.07
2022-10-15T21:35:57.522Z,3.77
2022-10-15T21:38:24.985Z,4.47
2022-10-15T21:40:53.749Z,36.23
2022-10-15T21:43:21.177Z,47.00
2022-10-15T21:45:48.601Z,15.93
2022-10-15T21:48:16.028Z,18.77
2022-10-15T21:50:47.395Z,17.30
2022-10-15T21:53:15.882Z,18.97
2022-10-15T21:55:52.642Z,17.83
2022-10-15T21:58:21.506Z,17.53
2022-10-15T22:00:48.982Z,16.40
2022-10-15T22:03:16.620Z,10.67
2022-10-15T22:05:44.157Z,5.03
2022-10-15T22:08:11.569Z,3.23
2022-10-15T22:10:39.161Z,2.63
2022-10-15T22:13:06.604Z,2.00
2022-10-15T22:15:35.544Z,3.30
2022-10-15T22:18:02.966Z,1.77
2022-10-15T22:20:30.451Z,2.00
2022-10-15T22:22:57.884Z,2.07
2022-10-15T22:25:25.370Z,2.33
2022-10-15T22:27:52.823Z,2.83
2022-10-15T22:30:20.264Z,3.13
2022-10-15T22:32:49.046Z,1.87
2022-10-15T22:35:16.476Z,2.07
2022-10-15T22:37:43.883Z,2.23
2022-10-15T22:40:12.382Z,4.13
2022-10-15T22:42:40.056Z,2.03
2022-10-15T22:45:08.046Z,2.90
2022-10-15T22:47:35.493Z,3.23
2022-10-15T22:50:04.308Z,4.43
2022-10-15T22:52:31.733Z,2.63
2022-10-15T22:54:59.524Z,2.23
2022-10-15T22:57:26.951Z,2.97
2022-10-15T22:59:57.162Z,1.70
2022-10-15T23:02:27.246Z,2.00
2022-10-15T23:04:55.026Z,3.37
2022-10-15T23:07:23.796Z,2.10
2022-10-15T23:09:51.219Z,2.17
2022-10-15T23:12:18.628Z,2.67
2022-10-15T23:14:46.074Z,2.37
2022-10-15T23:17:13.566Z,3.47
2022-10-15T23:19:41.030Z,3.10
2022-10-15T23:22:09.605Z,1.50
2022-10-15T23:24:38.468Z,1.80
2022-10-15T23:27:05.925Z,2.90
2022-10-15T23:29:33.356Z,2.23
2022-10-15T23:32:00.801Z,2.80
2022-10-15T23:34:29.164Z,1.40
2022-10-15T23:36:56.797Z,1.40
2022-10-15T23:39:25.322Z,2.50
2022-10-15T23:41:54.699Z,1.47
2022-10-15T23:44:25.246Z,3.03
2022-10-15T23:46:52.772Z,1.20
2022-10-15T23:49:20.247Z,1.77
2022-10-15T23:51:47.788Z,1.40
2022-10-15T23:54:16.261Z,1.70
2022-10-15T23:56:43.866Z,1.40
2022-10-15T23:59:12.825Z,1.10
